Konya/Eregli, Turkey
Current Conditions -  °F | °C
As of 12:50 AM on Friday 19 Dec 2014 (Local Time) from LTAF Reporting Station
Haze Haze  
Wind Chill: 57°   Ceiling: 10000
Heat Index: 57°   Visibility: 2.5mi
Dew Point: 43°   Wind: 6mph
Humidity: 59%   Direction: 10°N
Pressure: 30.06"   Gusts: NA
Location:  37.51°N, 34.06°E
Report Text: LTAF 182150Z 01005KT 4000 HZ SCT035 BKN100 14/06 Q1018 NOSIG
Loading
Personal Weather Stations






























Interactive Weather Map New forecast layout! Learn more

10-Day Weather Forecast

Advertisements
Track Severe Weather on mobile